Colora, Maryland
Current Conditions -  °F | °C
As of 10:35 PM on Sunday 23 Nov 2014 (Local Time) from KMQS Reporting Station
Light Rain Light Rain  
Wind Chill: 52°   Ceiling: 2000
Heat Index: 52°   Visibility: 7mi
Dew Point: 50°   Wind: 9mph
Humidity: 94%   Direction: 140°SE
Pressure: 29.95"   Gusts: NA
Location:  39.67°N, 76.1°W
Report Text: KMQS 240335Z AUTO 14008KT 7SM -RA SCT009 BKN020 OVC036 11/10 A2995 RMK AO2
Loading
Personal Weather Stations






























Interactive Weather Map New forecast layout! Learn more

10-Day Weather Forecast

Advertisements
Track Severe Weather on mobile